METAR Data
IDs: Format: Raw Decoded Include TAF

Data at: 0941 UTC 18 Jan 2022

Region: TOP
KATL 180852Z 30006KT 10SM FEW027 M01/M04 A3010 RMK AO2 SLP201 T10061044 53005

KBOS 180854Z 28014G21KT 10SM FEW031 SCT060 M01/M08 A2933 RMK AO2 PK WND 27027/0805 SLP933 T10111083 53038 $

KBWI 180854Z 27011G22KT 10SM OVC042 01/M06 A2981 RMK AO2 SLP097 T00111061 51036

KCLE 180927Z 28010KT 10SM SCT028 OVC038 M02/M07 A2991 RMK AO2 T10171067 $

KCLT 180852Z 24003KT 10SM CLR M03/M06 A3002 RMK AO2 SLP170 T10331056 53017

KCVG 180852Z 23005KT 10SM OVC024 M03/M08 A3004 RMK AO2 SLP180 T10281078 51011 $

KDCA 180852Z 30010G24KT 10SM OVC048 02/M07 A2986 RMK AO2 PK WND 31027/0805 SLP111 T00171067 51034 $

KDEN 180853Z 23007KT 10SM BKN250 02/M09 A2982 RMK AO2 SLP072 T00221089 57013

KDFW 180853Z 18009KT 10SM BKN250 09/M04 A2995 RMK AO2 SLP139 T00891039 56014

KDTW 180909Z 24007KT 10SM BKN028 OVC045 M02/M07 A2993 RMK AO2 T10221072 $

KEWR 180851Z 29019KT 10SM BKN044 BKN220 M02/M10 A2964 RMK AO2 PK WND 29031/0759 SLP035 T10171100 51054 $

KFLL 180853Z 32003KT 10SM CLR 12/11 A3009 RMK AO2 SLP189 6//// T01220106 53004 PNO $

KIAD 180852Z 29009KT 10SM BKN040 OVC047 01/M06 A2986 RMK AO2 SLP113 T00061061 51040

KIAH 180853Z 00000KT 10SM FEW250 06/04 A3008 RMK AO2 SLP188 T00610039 56009 $

KJFK 180851Z 29018G29KT 10SM FEW044 M01/M11 A2962 RMK AO2 PK WND 28035/0809 SLP030 T10111106 51051

KLAS 180856Z 00000KT 10SM OVC090 11/M05 A3001 RMK AO2 SLP156 SHRA OBSCURES MTNS DSNT W T01061050 58007

KLAX 180853Z 00000KT 10SM FEW008 BKN037 BKN060 15/13 A3005 RMK AO2 SLP174 T01500128 56007

KLGA 180851Z 29018G24KT 10SM SCT046 00/M10 A2961 RMK AO2 PK WND 29034/0752 SLP027 T00001100 51051 $

KMCO 180853Z 34015KT 10SM CLR 08/04 A3011 RMK AO2 SLP196 T00830039 53003

KMDW 180853Z 22005KT 10SM SCT100 M06/M09 A2998 RMK AO2 SLP167 T10561089 53008 $

KMEM 180854Z 00000KT 10SM CLR 00/M02 A3011 RMK AO2 SLP196 T00001022 53001 $

KMIA 180853Z 00000KT 10SM CLR 14/09 A3010 RMK AO2 SLP192 T01390094 53003 $

KMSP 180853Z 12007KT 9SM OVC040 M05/M07 A2974 RMK AO2 SLP082 T10501067 56024 $

KORD 180851Z 24004KT 10SM BKN100 M07/M09 A2996 RMK AO2 SLP154 T10671094 53006 $

KPDX 180853Z 11003KT 9SM OVC006 05/03 A3012 RMK AO2 SLP198 T00500028 53005

KPHL 180854Z 29009KT 10SM OVC040 02/M07 A2973 RMK AO2 SLP066 T00221067 51036 $

KPHX 180851Z 09003KT 10SM FEW080 BKN100 BKN120 13/M01 A2999 RMK AO2 SLP148 T01331006 58006 $

KPIT 180918Z 27013KT 10SM BKN015 OVC024 M03/M07 A2988 RMK AO2 T10281067

KSAN 180851Z 00000KT 10SM FEW005 BKN017 OVC023 13/13 A3007 RMK AO2 SLP182 60001 T01330128 58009

KSEA 180916Z 18011KT 7SM FEW007 OVC014 08/07 A2999 RMK AO2 T00780067 $

KSFO 180856Z 28010KT 10SM FEW009 FEW120 SCT200 11/08 A3008 RMK AO2 SLP187 T01060083 53004

KSLC 180854Z 01003KT 3SM R16L/1600VP6000FT BR BCFG BKN150 M03/M04 A3004 RMK AO2 SLP185 TWR VIS GTR THAN FOUR T10331044 58003 $

KSTL 180851Z 14004KT 10SM CLR M02/M04 A3002 RMK AO2 SLP175 T10171039 56009 $

KTPA 180853Z 36012KT 10SM CLR 09/03 A3014 RMK AO2 SLP206 T00940028 53009